Terminal Aerodrome Forecast
Issued by NWS Shreveport, LA

Home | Current Version | Previous Version | Text Only | Print | Product List | Glossary On
Versions: 1 2 3 4 5 6 7 8 9 10 11 12
000
FTUS44 KSHV 190524
TAFTXK
TAF
KTXK 190524Z 1906/2006 15003KT P6SM BKN280
      TEMPO 1911/1914 4SM BR BKN280
     FM191400 13005KT P6SM SCT015 BKN280
      TEMPO 1914/1915 BKN015 BKN280
     FM192100 12006KT P6SM BKN280=

USA.gov is the U.S. government's official web portal to all federal, state and local government web resources and services.